TimeEDT,TemperatureF,Dew PointF,Humidity,Sea Level PressureIn,VisibilityMPH,Wind Direction,Wind SpeedMPH,Gust SpeedMPH,PrecipitationIn,Events,Conditions,WindDirDegrees,DateUTC
12:51 AM,34.0,25.0,70,30.06,10.0,NW,4.6,-,N/A,,Clear,320,2012-11-03 04:51:00
1:51 AM,33.1,25.0,72,30.06,10.0,NW,4.6,-,N/A,,Clear,320,2012-11-03 05:51:00
2:51 AM,32.0,25.0,75,30.06,10.0,NNW,9.2,-,N/A,,Clear,340,2012-11-03 06:51:00
3:51 AM,30.9,25.0,79,30.07,10.0,NW,4.6,-,N/A,,Clear,320,2012-11-03 07:51:00
4:13 AM,30.2,24.8,80,30.03,10.0,WNW,4.6,-,N/A,,Mostly Cloudy,300,2012-11-03 08:13:00
4:51 AM,32.0,25.0,75,30.08,10.0,West,3.5,-,N/A,,Overcast,280,2012-11-03 08:51:00
5:51 AM,32.0,25.0,75,30.11,10.0,West,4.6,-,N/A,,Overcast,280,2012-11-03 09:51:00
6:51 AM,33.1,25.0,72,30.12,10.0,NW,5.8,-,N/A,,Overcast,320,2012-11-03 10:51:00
7:51 AM,33.1,25.0,72,30.14,10.0,NW,6.9,-,N/A,,Overcast,320,2012-11-03 11:51:00
8:51 AM,33.1,26.1,75,30.17,10.0,NNW,5.8,-,N/A,,Overcast,330,2012-11-03 12:51:00
9:51 AM,34.0,26.1,73,30.18,10.0,NNW,8.1,-,N/A,,Overcast,340,2012-11-03 13:51:00
10:51 AM,36.0,26.1,67,30.18,10.0,NNW,8.1,-,N/A,,Mostly Cloudy,340,2012-11-03 14:51:00
11:08 AM,35.6,26.6,70,30.12,10.0,North,8.1,-,N/A,,Scattered Clouds,350,2012-11-03 15:08:00
11:51 AM,37.9,26.1,62,30.17,10.0,NW,6.9,-,N/A,,Clear,320,2012-11-03 15:51:00
12:51 PM,39.9,26.1,58,30.16,10.0,NW,8.1,-,N/A,,Clear,320,2012-11-03 16:51:00
1:51 PM,42.1,27.0,55,30.14,10.0,NNW,6.9,-,N/A,,Clear,340,2012-11-03 17:51:00
2:51 PM,44.1,26.1,49,30.10,10.0,Variable,3.5,-,N/A,,Partly Cloudy,0,2012-11-03 18:51:00
3:51 PM,45.0,26.1,48,30.12,10.0,West,10.4,-,N/A,,Clear,280,2012-11-03 19:51:00
4:51 PM,44.1,27.0,51,30.09,10.0,NNE,4.6,-,N/A,,Partly Cloudy,20,2012-11-03 20:51:00
5:51 PM,43.0,28.0,56,30.11,10.0,WNW,5.8,-,N/A,,Overcast,290,2012-11-03 21:51:00
6:51 PM,42.1,28.9,60,30.09,10.0,Calm,Calm,-,0.01,Rain,Light Rain,0,2012-11-03 22:51:00
7:51 PM,39.0,33.1,79,30.12,7.0,Calm,Calm,-,0.00,Rain,Light Rain,0,2012-11-03 23:51:00
8:51 PM,37.0,35.1,93,30.14,4.0,Calm,Calm,-,0.08,Rain,Rain,0,2012-11-04 00:51:00
9:51 PM,37.0,35.1,93,30.09,8.0,ESE,6.9,-,0.11,Rain,Light Rain,120,2012-11-04 01:51:00
10:11 PM,37.4,35.6,93,30.06,10.0,NE,3.5,-,0.00,,Overcast,40,2012-11-04 02:11:00
10:22 PM,37.4,35.6,93,30.06,10.0,Calm,Calm,-,0.00,,Overcast,0,2012-11-04 02:22:00
10:51 PM,37.0,35.1,93,30.11,9.0,Calm,Calm,-,0.00,,Overcast,0,2012-11-04 02:51:00
11:51 PM,36.0,34.0,93,30.09,10.0,East,3.5,-,0.00,,Overcast,100,2012-11-04 03:51:00